Time;durP1;ratioP1;P1;durP2;ratioP2;P2;SDS_P1;SDS_P2;PMS_P1;PMS_P2;Temp;Humidity;BMP_temperature;BMP_pressure;BME280_temperature;BME280_humidity;BME280_pressure;Samples;Min_cycle;Max_cycle;Signal;HPM_P1;HPM_P2
2023/09/20 00:00:32;;;;;;;;;;;;;;;;;;5007433;28;4760;-59
2023/09/20 00:02:58;;;;;;;;;;;;;;;;;;4989636;28;5096;-60
2023/09/20 00:05:23;;;;;;;;;;;;;;;;;;4999290;28;1299;-60
2023/09/20 00:07:54;;;;;;;;;;;;;;;;;;5002904;28;4987;-59
2023/09/20 00:10:19;;;;;;;;;;;;;;;;;;4990319;28;4644;-60
2023/09/20 00:12:45;;;;;;;;;;;;;;;;;;5001740;28;4867;-59
2023/09/20 00:15:10;;;;;;;;;;;;;;;;;;5004065;28;4463;-60
2023/09/20 00:17:36;;;;;;;;;;;;;;;;;;5006843;28;4532;-61
2023/09/20 00:20:11;;;;;;;;;;;;;;;;;;5007926;28;1142;-59
2023/09/20 00:22:37;;;;;;;;;;;;;;;;;;5001330;28;4504;-60
2023/09/20 00:25:03;;;;;;;;;;;;;;;;;;5006406;28;5022;-59
2023/09/20 00:27:29;;;;;;;;;;;;;;;;;;4999462;28;5315;-60
2023/09/20 00:29:54;;;;;;;;;;;;;;;;;;5000789;28;4522;-59
2023/09/20 00:32:19;;;;;;;;;;;;;;;;;;4989609;28;1488;-60
2023/09/20 00:34:45;;;;;;;;;;;;;;;;;;5007471;28;4610;-59
2023/09/20 00:37:10;;;;;;;;;;;;;;;;;;4990139;28;4517;-60
2023/09/20 00:39:36;;;;;;;;;;;;;;;;;;4999473;28;4976;-59
2023/09/20 00:42:02;;;;;;;;;;;;;;;;;;5009133;28;4490;-60
2023/09/20 00:44:27;;;;;;;;;;;;;;;;;;5006183;28;4915;-60
2023/09/20 00:46:52;;;;;;;;;;;;;;;;;;4999333;28;1918;-60
2023/09/20 00:49:18;;;;;;;;;;;;;;;;;;5008873;28;5041;-60
2023/09/20 00:51:45;;;;;;;;;;;;;;;;;;5003352;28;5369;-60
2023/09/20 00:54:11;;;;;;;;;;;;;;;;;;4991422;28;5049;-60
2023/09/20 00:56:36;;;;;;;;;;;;;;;;;;5002652;28;5007;-61
2023/09/20 00:59:06;;;;;;;;;;;;;;;;;;5006354;28;1379;-60
2023/09/20 01:01:33;;;;;;;;;;;;;;;;;;5013644;28;4527;-60
2023/09/20 01:03:59;;;;;;;;;;;;;;;;;;5004054;28;5016;-60
2023/09/20 01:06:26;;;;;;;;;;;;;;;;;;4995903;28;5013;-59
2023/09/20 01:08:53;;;;;;;;;;;;;;;;;;5005692;28;5086;-60
2023/09/20 01:11:19;;;;;;;;;;;;;;;;;;5001574;28;1286;-60
2023/09/20 01:13:44;;;;;;;;;;;;;;;;;;5006549;28;4485;-60
2023/09/20 01:16:10;;;;;;;;;;;;;;;;;;5019461;28;5205;-60
2023/09/20 01:18:35;;;;;;;;;;;;;;;;;;5006879;28;5007;-60
2023/09/20 01:21:02;;;;;;;;;;;;;;;;;;4999583;28;5127;-60
2023/09/20 01:23:27;;;;;;;;;;;;;;;;;;5003603;28;4462;-60
2023/09/20 01:25:55;;;;;;;;;;;;;;;;;;5021399;28;1094;-60
2023/09/20 01:28:24;;;;;;;;;;;;;;;;;;5019950;28;4503;-60
2023/09/20 01:30:50;;;;;;;;;;;;;;;;;;5002413;28;4689;-60
2023/09/20 01:33:15;;;;;;;;;;;;;;;;;;5006900;28;4847;-59
2023/09/20 01:35:40;;;;;;;;;;;;;;;;;;4999227;28;4939;-59
2023/09/20 01:38:10;;;;;;;;;;;;;;;;;;5010143;28;1149;-60
2023/09/20 01:40:35;;;;;;;;;;;;;;;;;;5008473;28;4820;-60
2023/09/20 01:43:00;;;;;;;;;;;;;;;;;;4999861;28;4849;-60
2023/09/20 01:45:26;;;;;;;;;;;;;;;;;;5004478;28;4614;-60
2023/09/20 01:47:54;;;;;;;;;;;;;;;;;;5003587;28;5099;-60
2023/09/20 01:50:20;;;;;;;;;;;;;;;;;;5007603;28;1094;-60
2023/09/20 01:52:49;;;;;;;;;;;;;;;;;;5022713;28;5150;-60
2023/09/20 01:55:17;;;;;;;;;;;;;;;;;;5004236;28;5098;-60
2023/09/20 01:57:45;;;;;;;;;;;;;;;;;;5001635;28;5038;-60
2023/09/20 02:00:16;;;;;;;;;;;;;;;;;;5001414;28;4488;-60
2023/09/20 02:02:43;;;;;;;;;;;;;;;;;;5000787;28;5029;-60
2023/09/20 02:05:10;;;;;;;;;;;;;;;;;;5010160;28;1113;-60
2023/09/20 02:07:35;;;;;;;;;;;;;;;;;;5009060;28;4785;-60
2023/09/20 02:10:05;;;;;;;;;;;;;;;;;;5006441;28;5092;-60
2023/09/20 02:12:31;;;;;;;;;;;;;;;;;;5004898;28;5004;-60
2023/09/20 02:14:56;;;;;;;;;;;;;;;;;;5008668;28;5229;-59
2023/09/20 02:17:21;;;;;;;;;;;;;;;;;;4998930;28;1181;-60
2023/09/20 02:19:47;;;;;;;;;;;;;;;;;;5007225;28;4432;-60
2023/09/20 02:22:12;;;;;;;;;;;;;;;;;;5004587;28;5025;-60
2023/09/20 02:24:38;;;;;;;;;;;;;;;;;;5003158;28;5346;-60
2023/09/20 02:27:08;;;;;;;;;;;;;;;;;;5001960;28;5016;-59
2023/09/20 02:29:33;;;;;;;;;;;;;;;;;;5005808;28;4511;-60
2023/09/20 02:32:00;;;;;;;;;;;;;;;;;;5002372;28;1173;-60
2023/09/20 02:34:25;;;;;;;;;;;;;;;;;;5008620;28;4704;-60
2023/09/20 02:36:51;;;;;;;;;;;;;;;;;;5002045;28;5026;-60
2023/09/20 02:39:18;;;;;;;;;;;;;;;;;;5000982;28;4995;-59
2023/09/20 02:41:43;;;;;;;;;;;;;;;;;;5005246;28;5049;-59
2023/09/20 02:44:08;;;;;;;;;;;;;;;;;;5001096;28;1414;-60
2023/09/20 02:46:34;;;;;;;;;;;;;;;;;;5002739;28;4441;-60
2023/09/20 02:48:59;;;;;;;;;;;;;;;;;;5009173;28;5006;-60
2023/09/20 02:51:24;;;;;;;;;;;;;;;;;;5008126;28;4553;-60
2023/09/20 02:53:49;;;;;;;;;;;;;;;;;;4996803;28;5011;-60
2023/09/20 02:56:15;;;;;;;;;;;;;;;;;;5005516;28;1103;-59
2023/09/20 02:58:40;;;;;;;;;;;;;;;;;;4998244;28;4589;-60
2023/09/20 03:01:08;;;;;;;;;;;;;;;;;;5006283;28;4594;-60
2023/09/20 03:03:34;;;;;;;;;;;;;;;;;;4999215;28;4554;-60
2023/09/20 03:06:07;;;;;;;;;;;;;;;;;;5000694;28;5081;-60
2023/09/20 03:08:33;;;;;;;;;;;;;;;;;;4997431;28;5177;-60
2023/09/20 03:10:59;;;;;;;;;;;;;;;;;;4997600;28;1075;-60
2023/09/20 03:13:26;;;;;;;;;;;;;;;;;;4996366;28;4433;-60
2023/09/20 03:15:54;;;;;;;;;;;;;;;;;;4997070;28;4465;-60
2023/09/20 03:18:22;;;;;;;;;;;;;;;;;;5007470;28;5047;-60
2023/09/20 03:20:48;;;;;;;;;;;;;;;;;;4998489;28;4953;-59
2023/09/20 03:23:14;;;;;;;;;;;;;;;;;;5004166;28;1712;-60
2023/09/20 03:25:40;;;;;;;;;;;;;;;;;;4997557;28;4467;-59
2023/09/20 03:28:07;;;;;;;;;;;;;;;;;;5001883;28;4594;-61
2023/09/20 03:30:33;;;;;;;;;;;;;;;;;;5001251;28;4511;-60
2023/09/20 03:32:58;;;;;;;;;;;;;;;;;;5002435;28;4826;-60
2023/09/20 03:35:24;;;;;;;;;;;;;;;;;;5002242;28;1267;-61
2023/09/20 03:37:49;;;;;;;;;;;;;;;;;;5022663;28;5061;-60
2023/09/20 03:40:19;;;;;;;;;;;;;;;;;;4999106;28;4566;-60
2023/09/20 03:42:44;;;;;;;;;;;;;;;;;;4999049;28;5058;-60
2023/09/20 03:45:10;;;;;;;;;;;;;;;;;;5004255;28;5185;-60
2023/09/20 03:47:38;;;;;;;;;;;;;;;;;;5004860;28;4492;-61
2023/09/20 03:50:04;;;;;;;;;;;;;;;;;;5007352;28;1157;-62
2023/09/20 03:52:29;;;;;;;;;;;;;;;;;;5001151;28;5190;-60
2023/09/20 03:54:55;;;;;;;;;;;;;;;;;;4993506;28;4664;-60
2023/09/20 03:57:24;;;;;;;;;;;;;;;;;;5003020;28;4991;-61
2023/09/20 03:59:50;;;;;;;;;;;;;;;;;;4999941;28;5179;-61
2023/09/20 04:02:15;;;;;;;;;;;;;;;;;;5003701;28;1238;-61
2023/09/20 04:04:40;;;;;;;;;;;;;;;;;;4996052;28;5955;-60
2023/09/20 04:07:06;;;;;;;;;;;;;;;;;;5000405;28;4895;-60
2023/09/20 04:09:32;;;;;;;;;;;;;;;;;;4993827;28;5044;-59
2023/09/20 04:11:57;;;;;;;;;;;;;;;;;;5007221;28;5108;-60
2023/09/20 04:14:24;;;;;;;;;;;;;;;;;;5006387;28;1455;-59
2023/09/20 04:16:49;;;;;;;;;;;;;;;;;;5006434;28;5010;-60
2023/09/20 04:19:15;;;;;;;;;;;;;;;;;;5003523;28;4427;-61
2023/09/20 04:21:40;;;;;;;;;;;;;;;;;;5010674;28;5072;-60
2023/09/20 04:24:06;;;;;;;;;;;;;;;;;;4999903;28;5059;-60
2023/09/20 04:26:32;;;;;;;;;;;;;;;;;;4998033;28;4599;-59
2023/09/20 04:28:58;;;;;;;;;;;;;;;;;;5011038;28;1144;-60
2023/09/20 04:31:23;;;;;;;;;;;;;;;;;;4997322;28;5017;-59
2023/09/20 04:33:48;;;;;;;;;;;;;;;;;;5007533;28;4577;-60
2023/09/20 04:36:14;;;;;;;;;;;;;;;;;;4988963;28;4997;-60
2023/09/20 04:38:40;;;;;;;;;;;;;;;;;;5008142;28;4669;-60
2023/09/20 04:41:06;;;;;;;;;;;;;;;;;;5008777;28;1165;-60
2023/09/20 04:43:31;;;;;;;;;;;;;;;;;;5010435;28;4610;-60
2023/09/20 04:45:57;;;;;;;;;;;;;;;;;;5006527;28;5069;-60
2023/09/20 04:48:22;;;;;;;;;;;;;;;;;;5010170;28;4906;-60
2023/09/20 04:50:48;;;;;;;;;;;;;;;;;;5003142;28;5044;-60
2023/09/20 04:53:14;;;;;;;;;;;;;;;;;;5002295;28;4991;-59
2023/09/20 04:55:39;;;;;;;;;;;;;;;;;;5009823;28;4754;-59
2023/09/20 04:58:06;;;;;;;;;;;;;;;;;;5015868;28;5238;-59
2023/09/20 05:00:37;;;;;;;;;;;;;;;;;;5007149;28;5045;-61
2023/09/20 05:03:03;;;;;;;;;;;;;;;;;;5004102;28;5128;-60
2023/09/20 05:05:28;;;;;;;;;;;;;;;;;;5005131;28;5197;-60
2023/09/20 05:07:54;;;;;;;;;;;;;;;;;;5009790;28;3134;-59
2023/09/20 05:10:19;;;;;;;;;;;;;;;;;;5005699;28;4506;-60
2023/09/20 05:12:47;;;;;;;;;;;;;;;;;;5002461;28;5000;-60
2023/09/20 05:15:13;;;;;;;;;;;;;;;;;;4998586;28;5225;-60
2023/09/20 05:17:38;;;;;;;;;;;;;;;;;;5004172;28;5012;-60
2023/09/20 05:20:05;;;;;;;;;;;;;;;;;;4994479;28;1479;-60
2023/09/20 05:22:30;;;;;;;;;;;;;;;;;;5009037;28;4968;-60
2023/09/20 05:24:57;;;;;;;;;;;;;;;;;;5007045;28;5205;-60
2023/09/20 05:27:23;;;;;;;;;;;;;;;;;;5002969;28;4640;-59
2023/09/20 05:29:50;;;;;;;;;;;;;;;;;;5007315;28;4486;-59
2023/09/20 05:32:16;;;;;;;;;;;;;;;;;;5008320;28;1211;-59
2023/09/20 05:34:42;;;;;;;;;;;;;;;;;;5008401;28;4513;-60
2023/09/20 05:37:07;;;;;;;;;;;;;;;;;;5009475;28;5060;-60
2023/09/20 05:39:34;;;;;;;;;;;;;;;;;;5009630;28;5102;-60
2023/09/20 05:42:00;;;;;;;;;;;;;;;;;;4999748;28;4968;-60
2023/09/20 05:44:25;;;;;;;;;;;;;;;;;;5009707;28;1117;-59
2023/09/20 05:46:51;;;;;;;;;;;;;;;;;;5002676;28;4517;-60
2023/09/20 05:49:18;;;;;;;;;;;;;;;;;;5009340;28;5517;-60
2023/09/20 05:51:44;;;;;;;;;;;;;;;;;;5007009;28;5178;-60
2023/09/20 05:54:09;;;;;;;;;;;;;;;;;;5002558;28;5244;-60
2023/09/20 05:56:35;;;;;;;;;;;;;;;;;;5004843;28;4483;-59
2023/09/20 05:59:01;;;;;;;;;;;;;;;;;;5008420;28;1196;-59
2023/09/20 06:01:30;;;;;;;;;;;;;;;;;;5002612;28;5050;-60
2023/09/20 06:03:56;;;;;;;;;;;;;;;;;;5003120;28;5289;-60
2023/09/20 06:06:21;;;;;;;;;;;;;;;;;;5007129;28;5307;-60
2023/09/20 06:08:47;;;;;;;;;;;;;;;;;;5005829;28;5027;-60
2023/09/20 06:11:12;;;;;;;;;;;;;;;;;;5000716;28;1141;-60
2023/09/20 06:13:38;;;;;;;;;;;;;;;;;;5003985;28;4965;-60
2023/09/20 06:16:05;;;;;;;;;;;;;;;;;;4996090;28;5136;-60
2023/09/20 06:18:30;;;;;;;;;;;;;;;;;;5004153;28;4720;-60
2023/09/20 06:20:59;;;;;;;;;;;;;;;;;;4994300;28;5171;-61
2023/09/20 06:23:26;;;;;;;;;;;;;;;;;;5003356;28;1621;-60
2023/09/20 06:25:53;;;;;;;;;;;;;;;;;;5005604;28;4936;-60
2023/09/20 06:28:19;;;;;;;;;;;;;;;;;;5005812;28;5045;-59
2023/09/20 06:30:44;;;;;;;;;;;;;;;;;;5001652;28;5240;-59
2023/09/20 06:33:10;;;;;;;;;;;;;;;;;;5007745;28;4413;-59
2023/09/20 06:35:39;;;;;;;;;;;;;;;;;;5006328;28;4968;-60
2023/09/20 06:38:05;;;;;;;;;;;;;;;;;;5008391;28;1511;-60
2023/09/20 06:40:39;;;;;;;;;;;;;;;;;;5008544;28;4856;-60
2023/09/20 06:43:07;;;;;;;;;;;;;;;;;;5003624;28;4564;-60
2023/09/20 06:45:32;;;;;;;;;;;;;;;;;;5000117;28;4459;-60
2023/09/20 06:47:57;;;;;;;;;;;;;;;;;;5008084;28;4611;-60
2023/09/20 06:50:23;;;;;;;;;;;;;;;;;;5008517;28;1099;-60
2023/09/20 06:52:51;;;;;;;;;;;;;;;;;;4998851;28;5025;-60
2023/09/20 06:55:18;;;;;;;;;;;;;;;;;;5005030;28;5006;-59
2023/09/20 06:57:44;;;;;;;;;;;;;;;;;;4997393;28;4451;-59
2023/09/20 07:00:25;;;;;;;;;;;;;;;;;;5000390;28;4891;-60
2023/09/20 07:02:51;;;;;;;;;;;;;;;;;;5005511;28;4567;-61
2023/09/20 07:05:21;;;;;;;;;;;;;;;;;;5005428;28;1091;-61
2023/09/20 07:07:48;;;;;;;;;;;;;;;;;;5000958;28;5079;-60
2023/09/20 07:10:17;;;;;;;;;;;;;;;;;;5006233;28;4664;-61
2023/09/20 07:12:43;;;;;;;;;;;;;;;;;;4996153;28;5076;-60
2023/09/20 07:15:11;;;;;;;;;;;;;;;;;;5005125;28;4980;-60
2023/09/20 07:17:40;;;;;;;;;;;;;;;;;;5002012;28;4943;-61
2023/09/20 07:20:14;;;;;;;;;;;;;;;;;;4997174;28;1526;-61
2023/09/20 07:22:41;;;;;;;;;;;;;;;;;;5005606;28;4976;-61
2023/09/20 07:25:07;;;;;;;;;;;;;;;;;;5003549;28;4949;-61
2023/09/20 07:27:32;;;;;;;;;;;;;;;;;;5003523;28;5079;-60
2023/09/20 07:29:59;;;;;;;;;;;;;;;;;;5005895;28;5048;-61
2023/09/20 07:32:25;;;;;;;;;;;;;;;;;;4988814;28;1238;-61
2023/09/20 07:34:57;;;;;;;;;;;;;;;;;;4999890;28;4863;-60
2023/09/20 07:37:25;;;;;;;;;;;;;;;;;;5007396;28;5051;-60
2023/09/20 07:39:50;;;;;;;;;;;;;;;;;;5001874;28;4970;-61
2023/09/20 07:42:16;;;;;;;;;;;;;;;;;;5022273;28;5199;-61
2023/09/20 07:44:43;;;;;;;;;;;;;;;;;;5006663;28;5228;-61
2023/09/20 07:47:09;;;;;;;;;;;;;;;;;;5003326;28;1914;-60
2023/09/20 07:49:35;;;;;;;;;;;;;;;;;;4998977;28;5367;-61
2023/09/20 07:52:00;;;;;;;;;;;;;;;;;;5007681;28;4945;-61
2023/09/20 07:54:27;;;;;;;;;;;;;;;;;;5000022;28;5229;-61
2023/09/20 07:56:52;;;;;;;;;;;;;;;;;;5004301;28;5272;-61
2023/09/20 07:59:18;;;;;;;;;;;;;;;;;;5003683;28;1177;-61
2023/09/20 08:01:44;;;;;;;;;;;;;;;;;;5001304;28;4946;-60
2023/09/20 08:04:10;;;;;;;;;;;;;;;;;;4997278;28;5118;-61
2023/09/20 08:06:36;;;;;;;;;;;;;;;;;;5004006;28;5059;-61
2023/09/20 08:09:02;;;;;;;;;;;;;;;;;;4989340;28;5088;-60
2023/09/20 08:11:28;;;;;;;;;;;;;;;;;;5001272;28;4478;-61
2023/09/20 08:13:54;;;;;;;;;;;;;;;;;;5005159;28;1230;-61
2023/09/20 08:16:19;;;;;;;;;;;;;;;;;;4998252;28;5052;-61
2023/09/20 08:21:32;;;;;;;;;;;;;;;;;;4997178;28;4432;-60
2023/09/20 09:02:15;;;;;;;;;;;;;;;;;;5004927;28;1150;-61
2023/09/20 09:04:44;;;;;;;;;;;;;;;;;;4996462;28;4579;-60
2023/09/20 09:07:10;;;;;;;;;;;;;;;;;;4992229;28;5043;-61
2023/09/20 09:09:35;;;;;;;;;;;;;;;;;;5017128;28;5095;-60
2023/09/20 09:12:01;;;;;;;;;;;;;;;;;;5001360;28;4448;-60
2023/09/20 09:14:26;;;;;;;;;;;;;;;;;;5007279;28;1239;-61
2023/09/20 09:16:59;;;;;;;;;;;;;;;;;;5002185;28;5074;-61
2023/09/20 09:19:25;;;;;;;;;;;;;;;;;;4996819;28;5107;-60
2023/09/20 09:21:50;;;;;;;;;;;;;;;;;;4991349;28;5031;-60
2023/09/20 09:24:15;;;;;;;;;;;;;;;;;;4999103;28;5784;-60
2023/09/20 09:26:40;;;;;;;;;;;;;;;;;;5005800;28;5162;-61
2023/09/20 09:29:06;;;;;;;;;;;;;;;;;;4992177;28;1130;-61
2023/09/20 09:31:32;;;;;;;;;;;;;;;;;;5004004;28;5037;-60
2023/09/20 09:33:59;;;;;;;;;;;;;;;;;;5002327;28;4742;-60
2023/09/20 09:36:24;;;;;;;;;;;;;;;;;;5007477;28;5125;-60
2023/09/20 09:38:50;;;;;;;;;;;;;;;;;;5009191;28;4493;-61
2023/09/20 09:41:18;;;;;;;;;;;;;;;;;;5001493;28;1169;-60
2023/09/20 09:43:43;;;;;;;;;;;;;;;;;;5023621;28;4613;-60
2023/09/20 09:46:09;;;;;;;;;;;;;;;;;;4998766;28;5070;-60
2023/09/20 09:48:35;;;;;;;;;;;;;;;;;;5008252;28;5135;-60
2023/09/20 09:51:01;;;;;;;;;;;;;;;;;;5006646;28;5142;-60
2023/09/20 09:53:29;;;;;;;;;;;;;;;;;;5007064;28;4977;-60
2023/09/20 09:55:54;;;;;;;;;;;;;;;;;;5001046;28;4596;-59
2023/09/20 09:58:19;;;;;;;;;;;;;;;;;;5004215;28;4986;-60
2023/09/20 10:00:47;;;;;;;;;;;;;;;;;;5000806;28;5170;-62
2023/09/20 10:03:34;;;;;;;;;;;;;;;;;;5005410;28;4505;-59
2023/09/20 10:06:14;;;;;;;;;;;;;;;;;;5002457;28;4477;-59
2023/09/20 10:08:40;;;;;;;;;;;;;;;;;;4998772;28;4516;-60
2023/09/20 10:11:05;;;;;;;;;;;;;;;;;;4997191;28;1189;-59
2023/09/20 10:13:31;;;;;;;;;;;;;;;;;;5007520;28;4987;-60
2023/09/20 10:15:57;;;;;;;;;;;;;;;;;;5016917;28;5019;-59
2023/09/20 10:18:24;;;;;;;;;;;;;;;;;;5001845;28;4831;-59
2023/09/20 10:20:59;;;;;;;;;;;;;;;;;;5005900;28;4972;-59
2023/09/20 10:23:25;;;;;;;;;;;;;;;;;;5005713;28;1585;-60
2023/09/20 10:25:51;;;;;;;;;;;;;;;;;;5007448;28;4591;-59
2023/09/20 10:28:17;;;;;;;;;;;;;;;;;;5006343;28;4658;-59
2023/09/20 10:31:01;;;;;;;;;;;;;;;;;;5005025;28;4951;-60
2023/09/20 10:33:45;;;;;;;;;;;;;;;;;;5000650;28;4910;-59
2023/09/20 10:36:19;;;;;;;;;;;;;;;;;;5004059;28;5089;-59
2023/09/20 10:38:45;;;;;;;;;;;;;;;;;;5000339;28;5046;-60
2023/09/20 10:41:12;;;;;;;;;;;;;;;;;;5007727;28;1138;-61
2023/09/20 10:43:37;;;;;;;;;;;;;;;;;;5003033;28;4896;-61
2023/09/20 10:46:09;;;;;;;;;;;;;;;;;;5001499;28;5050;-61
2023/09/20 10:48:38;;;;;;;;;;;;;;;;;;5003861;28;4662;-60
2023/09/20 10:51:05;;;;;;;;;;;;;;;;;;5006781;28;4952;-61
2023/09/20 10:53:45;;;;;;;;;;;;;;;;;;4990559;28;4983;-60
2023/09/20 10:56:10;;;;;;;;;;;;;;;;;;4999487;28;1139;-61
2023/09/20 10:58:42;;;;;;;;;;;;;;;;;;4998521;28;4401;-61
2023/09/20 11:01:08;;;;;;;;;;;;;;;;;;5001268;28;4447;-60
2023/09/20 11:03:34;;;;;;;;;;;;;;;;;;5007301;28;4639;-61
2023/09/20 11:05:59;;;;;;;;;;;;;;;;;;5005637;28;5076;-62
2023/09/20 11:08:24;;;;;;;;;;;;;;;;;;5000146;28;1992;-60
2023/09/20 11:10:50;;;;;;;;;;;;;;;;;;4998874;28;4895;-60
2023/09/20 11:13:19;;;;;;;;;;;;;;;;;;5007495;28;4917;-60
2023/09/20 11:15:46;;;;;;;;;;;;;;;;;;5007422;28;4965;-60
2023/09/20 11:18:14;;;;;;;;;;;;;;;;;;5007298;28;4664;-60
2023/09/20 11:20:40;;;;;;;;;;;;;;;;;;5001819;28;5099;-60
2023/09/20 11:23:05;;;;;;;;;;;;;;;;;;5006253;28;1519;-60
2023/09/20 11:25:30;;;;;;;;;;;;;;;;;;5022053;28;5068;-60
2023/09/20 11:27:56;;;;;;;;;;;;;;;;;;5006145;28;5080;-60
2023/09/20 11:30:24;;;;;;;;;;;;;;;;;;5004342;28;5030;-60
2023/09/20 11:32:49;;;;;;;;;;;;;;;;;;5007668;28;4560;-60
2023/09/20 11:35:30;;;;;;;;;;;;;;;;;;5006896;28;1376;-60
2023/09/20 11:37:55;;;;;;;;;;;;;;;;;;5006264;28;4488;-60
2023/09/20 11:40:21;;;;;;;;;;;;;;;;;;5012646;28;4838;-60
2023/09/20 11:42:46;;;;;;;;;;;;;;;;;;5004392;28;5102;-60
2023/09/20 11:45:11;;;;;;;;;;;;;;;;;;5005703;28;4966;-60
2023/09/20 11:47:42;;;;;;;;;;;;;;;;;;4998346;28;4628;-60
2023/09/20 11:50:13;;;;;;;;;;;;;;;;;;5007035;28;1083;-60
2023/09/20 11:52:41;;;;;;;;;;;;;;;;;;4998060;28;5094;-60
2023/09/20 11:55:10;;;;;;;;;;;;;;;;;;5004359;28;5090;-61
2023/09/20 11:57:35;;;;;;;;;;;;;;;;;;5006538;28;5046;-61
2023/09/20 12:00:02;;;;;;;;;;;;;;;;;;4998778;28;4660;-61
2023/09/20 12:02:28;;;;;;;;;;;;;;;;;;4999742;28;5013;-61
2023/09/20 12:04:53;;;;;;;;;;;;;;;;;;4989329;28;1185;-61
2023/09/20 12:07:19;;;;;;;;;;;;;;;;;;5020600;28;4958;-61
2023/09/20 12:09:44;;;;;;;;;;;;;;;;;;4999202;28;4962;-60
2023/09/20 12:12:10;;;;;;;;;;;;;;;;;;5001117;28;5059;-61
2023/09/20 12:14:37;;;;;;;;;;;;;;;;;;4999415;28;4621;-60
2023/09/20 12:17:04;;;;;;;;;;;;;;;;;;5001363;28;1126;-61
2023/09/20 12:19:29;;;;;;;;;;;;;;;;;;5004038;28;5373;-61
2023/09/20 12:21:55;;;;;;;;;;;;;;;;;;5004647;28;5242;-61
2023/09/20 12:24:22;;;;;;;;;;;;;;;;;;5005508;28;5084;-61
2023/09/20 12:26:48;;;;;;;;;;;;;;;;;;4987502;28;5089;-59
2023/09/20 12:29:13;;;;;;;;;;;;;;;;;;4999066;28;1138;-61
2023/09/20 12:31:39;;;;;;;;;;;;;;;;;;5008320;28;4945;-60
2023/09/20 12:34:04;;;;;;;;;;;;;;;;;;5008955;28;5067;-60
2023/09/20 12:36:29;;;;;;;;;;;;;;;;;;5005886;28;5084;-60
2023/09/20 12:38:55;;;;;;;;;;;;;;;;;;5005205;28;5117;-60
2023/09/20 12:41:21;;;;;;;;;;;;;;;;;;5007935;28;1146;-60
2023/09/20 12:43:46;;;;;;;;;;;;;;;;;;5005934;28;4377;-60
2023/09/20 12:46:12;;;;;;;;;;;;;;;;;;5003731;28;4476;-60
2023/09/20 12:48:37;;;;;;;;;;;;;;;;;;5006076;28;4774;-60
2023/09/20 12:51:04;;;;;;;;;;;;;;;;;;5009359;28;4901;-60
2023/09/20 12:53:31;;;;;;;;;;;;;;;;;;5007711;28;5086;-60
2023/09/20 12:55:56;;;;;;;;;;;;;;;;;;5011023;28;1166;-60
2023/09/20 12:58:21;;;;;;;;;;;;;;;;;;5005328;28;4991;-60
2023/09/20 13:00:49;;;;;;;;;;;;;;;;;;5010096;28;4989;-60
2023/09/20 13:03:15;;;;;;;;;;;;;;;;;;5006593;28;5068;-59
2023/09/20 13:05:40;;;;;;;;;;;;;;;;;;5009023;28;4961;-60
2023/09/20 13:08:06;;;;;;;;;;;;;;;;;;5010567;28;1981;-59
2023/09/20 13:10:33;;;;;;;;;;;;;;;;;;5010108;28;4994;-61
2023/09/20 13:12:58;;;;;;;;;;;;;;;;;;4992090;28;5068;-61
2023/09/20 13:15:24;;;;;;;;;;;;;;;;;;5009686;28;5080;-61
2023/09/20 13:17:51;;;;;;;;;;;;;;;;;;5001754;28;5036;-60
2023/09/20 13:20:18;;;;;;;;;;;;;;;;;;5005417;28;1598;-61
2023/09/20 13:22:45;;;;;;;;;;;;;;;;;;4999539;28;5273;-61
2023/09/20 13:25:14;;;;;;;;;;;;;;;;;;5002713;28;5023;-61
2023/09/20 13:27:39;;;;;;;;;;;;;;;;;;5005681;28;5007;-61
2023/09/20 13:30:10;;;;;;;;;;;;;;;;;;5007308;28;4461;-60
2023/09/20 13:32:39;;;;;;;;;;;;;;;;;;5008312;28;5185;-60
2023/09/20 13:35:06;;;;;;;;;;;;;;;;;;5003180;28;2438;-60
2023/09/20 13:37:32;;;;;;;;;;;;;;;;;;5005107;28;4954;-60
2023/09/20 13:39:57;;;;;;;;;;;;;;;;;;5006909;28;5028;-60
2023/09/20 13:42:22;;;;;;;;;;;;;;;;;;5008427;28;5098;-61
2023/09/20 13:44:50;;;;;;;;;;;;;;;;;;5001279;28;5073;-60
2023/09/20 13:47:16;;;;;;;;;;;;;;;;;;4999537;28;1985;-61
2023/09/20 13:49:41;;;;;;;;;;;;;;;;;;5009187;28;4427;-61
2023/09/20 13:52:08;;;;;;;;;;;;;;;;;;5005865;28;4982;-60
2023/09/20 13:54:33;;;;;;;;;;;;;;;;;;5007895;28;5253;-60
2023/09/20 13:56:59;;;;;;;;;;;;;;;;;;5008114;28;4953;-61
2023/09/20 13:59:25;;;;;;;;;;;;;;;;;;5001000;28;1196;-61
2023/09/20 14:01:51;;;;;;;;;;;;;;;;;;5000933;28;4469;-61
2023/09/20 14:04:16;;;;;;;;;;;;;;;;;;5008298;28;4503;-61
2023/09/20 14:06:41;;;;;;;;;;;;;;;;;;5007902;28;5012;-60
2023/09/20 14:09:12;;;;;;;;;;;;;;;;;;5007206;28;5163;-61
2023/09/20 14:11:38;;;;;;;;;;;;;;;;;;5001288;28;5050;-61
2023/09/20 14:14:04;;;;;;;;;;;;;;;;;;5004290;28;1161;-61
2023/09/20 14:16:30;;;;;;;;;;;;;;;;;;5008812;28;4630;-61
2023/09/20 14:18:55;;;;;;;;;;;;;;;;;;5008437;28;4649;-61
2023/09/20 14:21:21;;;;;;;;;;;;;;;;;;4980234;28;5073;-61
2023/09/20 14:23:47;;;;;;;;;;;;;;;;;;5000408;28;4663;-61
2023/09/20 14:26:12;;;;;;;;;;;;;;;;;;5009124;28;1182;-61
2023/09/20 14:28:37;;;;;;;;;;;;;;;;;;4997459;28;4479;-61
2023/09/20 14:31:04;;;;;;;;;;;;;;;;;;5008370;28;4683;-61
2023/09/20 14:33:29;;;;;;;;;;;;;;;;;;4990272;28;4519;-61
2023/09/20 14:35:58;;;;;;;;;;;;;;;;;;5004000;28;5024;-60
2023/09/20 14:38:25;;;;;;;;;;;;;;;;;;5008871;28;1090;-61
2023/09/20 14:40:51;;;;;;;;;;;;;;;;;;5004633;28;4966;-61
2023/09/20 14:43:16;;;;;;;;;;;;;;;;;;5003252;28;5023;-60
2023/09/20 14:45:42;;;;;;;;;;;;;;;;;;5004990;28;5000;-61
2023/09/20 14:48:10;;;;;;;;;;;;;;;;;;5006162;28;4670;-61
2023/09/20 14:50:37;;;;;;;;;;;;;;;;;;4990344;28;5082;-61
2023/09/20 14:53:04;;;;;;;;;;;;;;;;;;5001305;28;4960;-61
2023/09/20 14:55:30;;;;;;;;;;;;;;;;;;4999906;28;5043;-61
2023/09/20 14:57:55;;;;;;;;;;;;;;;;;;5003373;28;5004;-60
2023/09/20 15:00:24;;;;;;;;;;;;;;;;;;5005844;28;4894;-61
2023/09/20 15:02:52;;;;;;;;;;;;;;;;;;4994777;28;4513;-64
2023/09/20 15:05:18;;;;;;;;;;;;;;;;;;4999968;28;3276;-61
2023/09/20 15:07:43;;;;;;;;;;;;;;;;;;4997241;28;5129;-67
2023/09/20 15:10:10;;;;;;;;;;;;;;;;;;5004454;28;4612;-65
2023/09/20 15:12:41;;;;;;;;;;;;;;;;;;5006630;28;4498;-65
2023/09/20 15:15:07;;;;;;;;;;;;;;;;;;4997213;28;5131;-66
2023/09/20 15:17:33;;;;;;;;;;;;;;;;;;4998060;28;4679;-67
2023/09/20 15:19:59;;;;;;;;;;;;;;;;;;5002066;28;3484;-67
2023/09/20 15:22:29;;;;;;;;;;;;;;;;;;4987972;28;5198;-66
2023/09/20 15:24:56;;;;;;;;;;;;;;;;;;5002985;28;5045;-66
2023/09/20 15:27:21;;;;;;;;;;;;;;;;;;4995175;28;5081;-67
2023/09/20 15:29:47;;;;;;;;;;;;;;;;;;4994610;28;4561;-67
2023/09/20 15:32:12;;;;;;;;;;;;;;;;;;4993520;28;3447;-67
2023/09/20 15:34:37;;;;;;;;;;;;;;;;;;5007421;28;4621;-66
2023/09/20 15:37:02;;;;;;;;;;;;;;;;;;5005515;28;4483;-67
2023/09/20 15:39:28;;;;;;;;;;;;;;;;;;4997604;28;4971;-66
2023/09/20 15:41:54;;;;;;;;;;;;;;;;;;5007372;28;4991;-66
2023/09/20 15:44:19;;;;;;;;;;;;;;;;;;5006295;28;1522;-67
2023/09/20 15:46:46;;;;;;;;;;;;;;;;;;4999040;28;5174;-68
2023/09/20 15:49:11;;;;;;;;;;;;;;;;;;5007256;28;4983;-67
2023/09/20 15:51:36;;;;;;;;;;;;;;;;;;5000464;28;5041;-67
2023/09/20 15:54:02;;;;;;;;;;;;;;;;;;5002599;28;5055;-66
2023/09/20 15:56:27;;;;;;;;;;;;;;;;;;4999613;28;1108;-67
2023/09/20 15:58:52;;;;;;;;;;;;;;;;;;5001861;28;4771;-67
2023/09/20 16:01:19;;;;;;;;;;;;;;;;;;4997200;28;4950;-67
2023/09/20 16:03:45;;;;;;;;;;;;;;;;;;5001424;28;4669;-66
2023/09/20 16:06:10;;;;;;;;;;;;;;;;;;4994107;28;4453;-66
2023/09/20 16:08:36;;;;;;;;;;;;;;;;;;5004576;28;4925;-67
2023/09/20 16:11:01;;;;;;;;;;;;;;;;;;5001219;28;1173;-67
2023/09/20 16:13:26;;;;;;;;;;;;;;;;;;5000843;28;4982;-68
2023/09/20 16:15:52;;;;;;;;;;;;;;;;;;5001021;28;4659;-67
2023/09/20 16:18:17;;;;;;;;;;;;;;;;;;5001856;28;5015;-68
2023/09/20 16:20:43;;;;;;;;;;;;;;;;;;5000789;28;5016;-67
2023/09/20 16:23:08;;;;;;;;;;;;;;;;;;5003552;28;2270;-67
2023/09/20 16:25:34;;;;;;;;;;;;;;;;;;5004848;28;4980;-67
2023/09/20 16:27:59;;;;;;;;;;;;;;;;;;4998702;28;4952;-67
2023/09/20 16:30:24;;;;;;;;;;;;;;;;;;4997679;28;5043;-67
2023/09/20 16:32:51;;;;;;;;;;;;;;;;;;5003517;28;4779;-67
2023/09/20 16:35:17;;;;;;;;;;;;;;;;;;4997292;28;1157;-68
2023/09/20 16:37:43;;;;;;;;;;;;;;;;;;5006182;28;4981;-67
2023/09/20 16:40:08;;;;;;;;;;;;;;;;;;4993282;28;5088;-67
2023/09/20 16:42:34;;;;;;;;;;;;;;;;;;5004629;28;4830;-68
2023/09/20 16:44:59;;;;;;;;;;;;;;;;;;4991509;28;4928;-68
2023/09/20 16:47:25;;;;;;;;;;;;;;;;;;5001937;28;1922;-68
2023/09/20 16:49:53;;;;;;;;;;;;;;;;;;4985040;28;5041;-68
2023/09/20 16:52:18;;;;;;;;;;;;;;;;;;5006575;28;4839;-68
2023/09/20 16:54:44;;;;;;;;;;;;;;;;;;5003371;28;5300;-68
2023/09/20 16:57:09;;;;;;;;;;;;;;;;;;5005041;28;5107;-67
2023/09/20 16:59:36;;;;;;;;;;;;;;;;;;4960030;28;1221286;-67
2023/09/20 17:02:03;;;;;;;;;;;;;;;;;;4998440;28;1195;-68
2023/09/20 17:04:33;;;;;;;;;;;;;;;;;;5016290;28;5324;-67
2023/09/20 17:06:58;;;;;;;;;;;;;;;;;;5001337;28;5081;-67
2023/09/20 17:09:23;;;;;;;;;;;;;;;;;;5004070;28;5031;-67
2023/09/20 17:11:49;;;;;;;;;;;;;;;;;;4999646;28;4501;-68
2023/09/20 17:14:15;;;;;;;;;;;;;;;;;;5004841;28;1594;-68
2023/09/20 17:16:41;;;;;;;;;;;;;;;;;;5008315;28;5017;-67
2023/09/20 17:19:06;;;;;;;;;;;;;;;;;;5004582;28;4476;-68
2023/09/20 17:21:31;;;;;;;;;;;;;;;;;;4997602;28;5218;-68
2023/09/20 17:23:57;;;;;;;;;;;;;;;;;;5008322;28;4939;-68
2023/09/20 17:26:24;;;;;;;;;;;;;;;;;;5009008;28;1378;-68
2023/09/20 17:28:51;;;;;;;;;;;;;;;;;;5000054;28;5049;-68
2023/09/20 17:31:17;;;;;;;;;;;;;;;;;;5000591;28;5188;-67
2023/09/20 17:33:44;;;;;;;;;;;;;;;;;;4997527;28;4966;-68
2023/09/20 17:36:12;;;;;;;;;;;;;;;;;;4991218;28;5942;-68
2023/09/20 17:38:38;;;;;;;;;;;;;;;;;;4998599;28;5014;-68